createdAt,value
2022-09-05T00:03:06.792Z,100.00
2022-09-05T00:06:10.398Z,100.00
2022-09-05T00:09:18.896Z,100.00
2022-09-05T00:12:23.246Z,100.00
2022-09-05T00:15:36.286Z,100.00
2022-09-05T00:24:25.765Z,100.00
2022-09-05T00:24:33.004Z,100.00
2022-09-05T00:26:05.560Z,100.00
2022-09-05T00:29:20.364Z,100.00
2022-09-05T00:32:59.071Z,100.00
2022-09-05T00:36:20.097Z,100.00
2022-09-05T00:39:25.669Z,100.00
2022-09-05T00:42:27.471Z,100.00
2022-09-05T00:45:35.338Z,100.00
2022-09-05T00:48:46.368Z,100.00
2022-09-05T00:51:54.280Z,100.00
2022-09-05T00:55:10.749Z,100.00
2022-09-05T00:58:34.096Z,100.00
2022-09-05T01:01:41.936Z,100.00
2022-09-05T01:04:51.662Z,100.00
2022-09-05T01:08:13.075Z,100.00
2022-09-05T01:11:28.637Z,100.00
2022-09-05T01:14:43.903Z,100.00
2022-09-05T01:18:00.293Z,100.00
2022-09-05T01:21:21.120Z,100.00
2022-09-05T01:24:40.924Z,100.00
2022-09-05T01:29:14.555Z,100.00
2022-09-05T01:31:26.423Z,100.00
2022-09-05T01:34:37.238Z,100.00
2022-09-05T01:37:45.165Z,100.00
2022-09-05T01:41:18.814Z,100.00
2022-09-05T01:44:30.395Z,100.00
2022-09-05T01:47:46.645Z,100.00
2022-09-05T01:50:59.854Z,100.00
2022-09-05T01:54:25.082Z,100.00
2022-09-05T01:57:40.100Z,100.00
2022-09-05T02:00:55.761Z,100.00
2022-09-05T02:04:34.573Z,100.00
2022-09-05T02:08:09.586Z,100.00
2022-09-05T02:11:12.442Z,100.00
2022-09-05T02:14:33.822Z,100.00
2022-09-05T02:17:51.795Z,100.00
2022-09-05T02:20:56.926Z,100.00
2022-09-05T02:24:09.851Z,100.00
2022-09-05T02:27:47.561Z,100.00
2022-09-05T02:31:18.915Z,100.00
2022-09-05T02:34:22.846Z,100.00
2022-09-05T02:39:24.060Z,100.00
2022-09-05T02:45:18.725Z,100.00
2022-09-05T02:45:24.051Z,100.00
2022-09-05T02:47:58.067Z,100.00
2022-09-05T02:57:27.444Z,100.00
2022-09-05T02:57:38.162Z,100.00
2022-09-05T02:58:20.547Z,100.00
2022-09-05T03:01:36.530Z,100.00
2022-09-05T03:04:47.421Z,100.00
2022-09-05T03:08:13.293Z,100.00
2022-09-05T03:12:27.146Z,100.00
2022-09-05T03:15:59.334Z,100.00
2022-09-05T03:19:47.012Z,100.00
2022-09-05T03:23:50.299Z,100.00
2022-09-05T03:27:20.394Z,100.00
2022-09-05T03:30:42.470Z,100.00
2022-09-05T03:34:00.113Z,100.00
2022-09-05T03:37:44.400Z,100.00
2022-09-05T03:41:06.825Z,100.00
2022-09-05T03:44:32.357Z,100.00
2022-09-05T03:47:53.991Z,100.00
2022-09-05T03:57:12.568Z,100.00
2022-09-05T03:57:13.502Z,100.00
2022-09-05T03:58:57.964Z,100.00
2022-09-05T04:04:28.839Z,100.00
2022-09-05T04:08:18.262Z,100.00
2022-09-05T04:09:03.672Z,100.00
2022-09-05T04:12:16.198Z,100.00
2022-09-05T04:15:31.037Z,100.00
2022-09-05T04:18:39.188Z,100.00
2022-09-05T04:21:47.036Z,100.00
2022-09-05T04:24:57.362Z,100.00
2022-09-05T04:28:19.504Z,100.00
2022-09-05T04:31:30.919Z,100.00
2022-09-05T04:34:45.063Z,100.00
2022-09-05T04:37:55.288Z,100.00
2022-09-05T04:41:00.510Z,100.00
2022-09-05T04:44:08.495Z,100.00
2022-09-05T04:47:16.285Z,100.00
2022-09-05T04:50:23.623Z,100.00
2022-09-05T04:53:47.905Z,100.00
2022-09-05T04:56:54.956Z,100.00
2022-09-05T05:05:23.673Z,100.00
2022-09-05T05:06:16.122Z,100.00
2022-09-05T05:07:06.117Z,100.00
2022-09-05T05:13:28.277Z,100.00
2022-09-05T05:17:57.804Z,100.00
2022-09-05T05:18:07.037Z,100.00
2022-09-05T05:20:44.050Z,100.00
2022-09-05T05:23:50.920Z,100.00
2022-09-05T05:27:00.198Z,100.00
2022-09-05T05:30:04.825Z,100.00
2022-09-05T05:33:18.991Z,100.00
2022-09-05T05:36:25.668Z,100.00
2022-09-05T05:39:29.202Z,100.00
2022-09-05T05:42:31.671Z,100.00
2022-09-05T05:45:33.972Z,100.00
2022-09-05T05:48:38.411Z,100.00
2022-09-05T05:52:02.647Z,100.00
2022-09-05T05:55:50.573Z,100.00
2022-09-05T05:59:08.559Z,100.00
2022-09-05T06:03:13.620Z,100.00
2022-09-05T06:06:36.782Z,100.00
2022-09-05T06:14:51.552Z,100.00
2022-09-05T06:14:57.621Z,100.00
2022-09-05T06:17:44.323Z,100.00
2022-09-05T06:22:05.954Z,100.00
2022-09-05T06:25:16.430Z,100.00
2022-09-05T06:28:30.533Z,100.00
2022-09-05T06:31:44.853Z,100.00
2022-09-05T06:35:07.776Z,100.00
2022-09-05T06:38:22.019Z,100.00
2022-09-05T06:41:36.799Z,100.00
2022-09-05T06:44:55.785Z,100.00
2022-09-05T06:48:14.484Z,100.00
2022-09-05T06:51:49.765Z,100.00
2022-09-05T06:55:33.993Z,100.00
2022-09-05T06:59:15.254Z,100.00
2022-09-05T07:02:46.384Z,100.00
2022-09-05T07:05:55.735Z,100.00
2022-09-05T07:09:05.644Z,100.00
2022-09-05T07:12:18.193Z,100.00
2022-09-05T07:15:35.086Z,100.00
2022-09-05T07:18:45.414Z,100.00
2022-09-05T07:21:58.933Z,100.00
2022-09-05T07:25:06.492Z,100.00
2022-09-05T07:28:28.175Z,100.00
2022-09-05T07:31:37.511Z,100.00
2022-09-05T07:34:45.812Z,100.00
2022-09-05T07:37:56.698Z,100.00
2022-09-05T07:41:04.056Z,100.00
2022-09-05T07:44:10.901Z,100.00
2022-09-05T07:47:20.546Z,100.00
2022-09-05T07:52:09.404Z,100.00
2022-09-05T07:57:01.035Z,100.00
2022-09-05T07:57:25.519Z,100.00
2022-09-05T08:00:31.155Z,100.00
2022-09-05T08:03:33.919Z,100.00
2022-09-05T08:07:49.562Z,100.00
2022-09-05T08:10:09.221Z,100.00
2022-09-05T08:13:23.773Z,100.00
2022-09-05T08:16:28.762Z,100.00
2022-09-05T08:19:40.539Z,100.00
2022-09-05T08:22:52.200Z,100.00
2022-09-05T08:25:59.952Z,100.00
2022-09-05T08:29:11.150Z,100.00
2022-09-05T08:32:15.942Z,100.00
2022-09-05T08:35:26.603Z,100.00
2022-09-05T08:38:37.437Z,100.00
2022-09-05T08:42:03.487Z,100.00
2022-09-05T08:46:40.995Z,100.00
2022-09-05T08:49:11.253Z,100.00
2022-09-05T08:52:24.289Z,100.00
2022-09-05T08:55:39.461Z,100.00
2022-09-05T08:59:28.335Z,100.00
2022-09-05T09:02:50.743Z,100.00
2022-09-05T09:06:18.056Z,100.00
2022-09-05T09:09:34.265Z,100.00
2022-09-05T09:13:03.768Z,100.00
2022-09-05T09:16:10.947Z,100.00
2022-09-05T09:19:29.440Z,100.00
2022-09-05T09:22:39.950Z,100.00
2022-09-05T09:25:49.167Z,100.00
2022-09-05T09:28:57.668Z,100.00
2022-09-05T09:32:04.751Z,100.00
2022-09-05T09:35:14.813Z,100.00
2022-09-05T09:38:26.404Z,100.00
2022-09-05T09:41:45.264Z,100.00
2022-09-05T09:45:22.750Z,100.00
2022-09-05T09:48:53.112Z,100.00
2022-09-05T09:52:20.991Z,100.00
2022-09-05T09:55:59.911Z,100.00
2022-09-05T09:59:22.492Z,100.00
2022-09-05T10:05:47.610Z,100.00
2022-09-05T10:10:51.623Z,100.00
2022-09-05T10:10:58.569Z,100.00
2022-09-05T10:14:49.672Z,100.00
2022-09-05T10:18:25.514Z,100.00
2022-09-05T10:21:39.677Z,100.00
2022-09-05T10:25:19.635Z,100.00
2022-09-05T10:28:31.693Z,100.00
2022-09-05T10:34:23.413Z,100.00
2022-09-05T10:35:25.962Z,98.12
2022-09-05T10:38:36.095Z,100.00
2022-09-05T10:41:51.657Z,100.00
2022-09-05T10:44:55.309Z,100.00
2022-09-05T10:48:13.321Z,92.47
2022-09-05T10:51:27.809Z,92.41
2022-09-05T10:54:38.045Z,91.49
2022-09-05T10:57:53.465Z,93.82
2022-09-05T11:02:19.413Z,92.22
2022-09-05T11:04:49.730Z,94.10
2022-09-05T11:08:02.850Z,85.04
2022-09-05T11:11:26.082Z,95.45
2022-09-05T11:14:49.305Z,92.33
2022-09-05T11:17:57.927Z,80.29
2022-09-05T11:21:08.379Z,88.92
2022-09-05T11:24:27.419Z,81.78
2022-09-05T11:27:34.464Z,84.01
2022-09-05T11:30:40.657Z,79.58
2022-09-05T11:39:52.354Z,84.82
2022-09-05T11:40:06.813Z,73.37
2022-09-05T11:41:38.740Z,73.51
2022-09-05T11:44:53.752Z,73.04
2022-09-05T11:48:22.717Z,76.69
2022-09-05T11:51:48.495Z,68.74
2022-09-05T11:55:24.789Z,74.40
2022-09-05T11:58:55.506Z,63.16
2022-09-05T12:02:23.267Z,67.04
2022-09-05T12:05:48.410Z,69.50
2022-09-05T12:08:59.910Z,65.51
2022-09-05T12:12:39.392Z,60.95
2022-09-05T12:16:07.309Z,59.18
2022-09-05T12:19:23.039Z,55.73
2022-09-05T12:22:29.161Z,60.03
2022-09-05T12:27:39.352Z,54.56
2022-09-05T12:36:01.334Z,52.25
2022-09-05T12:40:40.570Z,55.08
2022-09-05T12:40:55.409Z,53.30
2022-09-05T12:41:41.810Z,54.29
2022-09-05T12:44:38.344Z,56.98
2022-09-05T12:46:35.642Z,54.89
2022-09-05T12:49:52.187Z,50.67
2022-09-05T12:53:01.893Z,52.89
2022-09-05T12:58:09.105Z,49.10
2022-09-05T13:03:03.545Z,48.62
2022-09-05T13:03:26.812Z,54.17
2022-09-05T13:06:25.993Z,48.54
2022-09-05T13:10:48.903Z,46.32
2022-09-05T13:14:55.028Z,42.72
2022-09-05T13:16:25.837Z,40.90
2022-09-05T13:19:34.321Z,40.10
2022-09-05T13:22:40.118Z,40.03
2022-09-05T13:25:58.336Z,40.19
2022-09-05T13:29:10.616Z,39.80
2022-09-05T13:38:10.811Z,37.04
2022-09-05T13:38:10.926Z,40.73
2022-09-05T13:39:32.855Z,39.27
2022-09-05T13:42:39.769Z,37.64
2022-09-05T13:46:11.453Z,39.67
2022-09-05T13:49:26.657Z,38.89
2022-09-05T13:52:35.645Z,36.53
2022-09-05T13:55:44.205Z,36.71
2022-09-05T13:58:57.181Z,39.37
2022-09-05T14:02:27.935Z,38.51
2022-09-05T14:05:37.460Z,37.48
2022-09-05T14:12:38.715Z,43.57
2022-09-05T14:15:52.237Z,40.30
2022-09-05T14:19:14.381Z,37.81
2022-09-05T14:22:35.519Z,37.96
2022-09-05T14:25:39.987Z,36.50
2022-09-05T14:28:50.184Z,37.39
2022-09-05T14:37:37.484Z,38.83
2022-09-05T14:37:49.608Z,37.93
2022-09-05T14:39:51.948Z,36.88
2022-09-05T14:43:17.511Z,36.85
2022-09-05T14:46:51.027Z,37.44
2022-09-05T14:50:06.044Z,36.08
2022-09-05T14:58:03.359Z,41.46
2022-09-05T15:02:44.573Z,37.59
2022-09-05T15:07:16.700Z,33.90
2022-09-05T15:12:14.553Z,33.45
2022-09-05T15:14:01.400Z,33.29
2022-09-05T15:17:05.719Z,32.78
2022-09-05T15:20:09.700Z,34.97
2022-09-05T15:23:28.597Z,35.72
2022-09-05T15:26:31.615Z,31.38
2022-09-05T15:29:35.228Z,30.96
2022-09-05T15:32:38.874Z,31.99
2022-09-05T15:35:44.066Z,33.73
2022-09-05T15:38:55.957Z,32.92
2022-09-05T15:42:12.828Z,32.71
2022-09-05T15:45:20.645Z,34.27
2022-09-05T15:48:26.157Z,34.07
2022-09-05T15:51:42.464Z,34.33
2022-09-05T15:54:49.626Z,35.54
2022-09-05T15:57:53.911Z,36.28
2022-09-05T16:00:55.733Z,35.21
2022-09-05T16:10:27.037Z,34.23
2022-09-05T16:10:42.219Z,33.52
2022-09-05T16:11:20.308Z,33.51
2022-09-05T16:14:13.355Z,33.00
2022-09-05T16:23:13.191Z,31.49
2022-09-05T16:23:34.728Z,31.52
2022-09-05T16:24:24.823Z,34.15
2022-09-05T16:28:00.170Z,31.80
2022-09-05T16:31:05.037Z,31.63
2022-09-05T16:34:19.914Z,32.04
2022-09-05T16:37:29.143Z,31.60
2022-09-05T16:40:38.299Z,31.06
2022-09-05T16:43:44.477Z,30.77
2022-09-05T16:47:02.486Z,31.83
2022-09-05T16:50:16.605Z,31.48
2022-09-05T16:53:30.608Z,32.30
2022-09-05T16:56:38.994Z,30.97
2022-09-05T16:59:45.625Z,31.93
2022-09-05T17:02:53.799Z,30.84
2022-09-05T17:06:05.594Z,34.19
2022-09-05T17:09:19.599Z,31.84
2022-09-05T17:12:26.663Z,35.39
2022-09-05T17:15:35.300Z,37.04
2022-09-05T17:18:38.993Z,34.88
2022-09-05T17:24:46.472Z,38.11
2022-09-05T17:29:25.248Z,37.67
2022-09-05T17:29:29.472Z,39.02
2022-09-05T17:32:19.050Z,43.53
2022-09-05T17:35:42.279Z,49.05
2022-09-05T17:39:05.881Z,54.41
2022-09-05T17:42:28.745Z,59.07
2022-09-05T17:45:45.263Z,69.32
2022-09-05T17:49:18.118Z,64.54
2022-09-05T17:52:23.230Z,62.67
2022-09-05T17:55:51.903Z,69.88
2022-09-05T17:59:05.879Z,67.76
2022-09-05T18:02:31.940Z,65.60
2022-09-05T18:06:00.952Z,65.01
2022-09-05T18:09:08.949Z,73.71
2022-09-05T18:12:31.564Z,67.60
2022-09-05T18:16:10.451Z,68.96
2022-09-05T18:20:00.143Z,71.76
2022-09-05T18:23:43.706Z,76.06
2022-09-05T18:30:24.925Z,71.52
2022-09-05T18:33:55.997Z,74.99
2022-09-05T18:36:51.385Z,76.31
2022-09-05T18:40:03.898Z,86.14
2022-09-05T18:43:14.121Z,80.35
2022-09-05T18:46:21.040Z,81.30
2022-09-05T18:50:24.604Z,81.76
2022-09-05T18:53:10.229Z,81.65
2022-09-05T18:56:30.992Z,83.40
2022-09-05T18:59:36.247Z,83.42
2022-09-05T19:02:51.502Z,81.88
2022-09-05T19:06:36.602Z,87.71
2022-09-05T19:09:31.563Z,87.75
2022-09-05T19:12:40.867Z,86.06
2022-09-05T19:16:02.283Z,90.13
2022-09-05T19:19:27.680Z,91.54
2022-09-05T19:23:02.634Z,88.75
2022-09-05T19:25:56.176Z,97.77
2022-09-05T19:36:51.850Z,97.52
2022-09-05T19:37:03.611Z,100.00
2022-09-05T19:37:05.140Z,94.78
2022-09-05T19:41:34.667Z,100.00
2022-09-05T19:47:29.585Z,100.00
2022-09-05T19:47:45.141Z,100.00
2022-09-05T19:49:32.803Z,100.00
2022-09-05T19:52:35.655Z,100.00
2022-09-05T19:55:41.817Z,100.00
2022-09-05T19:58:45.748Z,100.00
2022-09-05T20:01:48.172Z,100.00
2022-09-05T20:04:53.177Z,100.00
2022-09-05T20:07:57.378Z,100.00
2022-09-05T20:11:03.212Z,100.00
2022-09-05T20:14:18.841Z,100.00
2022-09-05T20:17:24.120Z,100.00
2022-09-05T20:20:28.231Z,100.00
2022-09-05T20:23:31.216Z,100.00
2022-09-05T20:26:34.395Z,100.00
2022-09-05T20:29:54.925Z,100.00
2022-09-05T20:33:05.170Z,100.00
2022-09-05T20:40:32.393Z,100.00
2022-09-05T20:43:28.947Z,100.00
2022-09-05T20:43:36.452Z,100.00
2022-09-05T20:49:35.186Z,100.00
2022-09-05T20:54:15.841Z,100.00
2022-09-05T20:54:22.769Z,100.00
2022-09-05T20:57:13.514Z,100.00
2022-09-05T21:00:19.369Z,100.00
2022-09-05T21:03:27.710Z,100.00
2022-09-05T21:06:33.428Z,100.00
2022-09-05T21:09:50.825Z,100.00
2022-09-05T21:12:55.590Z,100.00
2022-09-05T21:15:58.770Z,100.00
2022-09-05T21:19:02.085Z,100.00
2022-09-05T21:22:06.719Z,100.00
2022-09-05T21:25:22.556Z,100.00
2022-09-05T21:28:36.932Z,100.00
2022-09-05T21:31:44.114Z,100.00
2022-09-05T21:34:52.017Z,100.00
2022-09-05T21:37:55.694Z,100.00
2022-09-05T21:41:01.205Z,100.00
2022-09-05T21:47:37.649Z,100.00
2022-09-05T21:47:48.937Z,100.00
2022-09-05T21:50:51.372Z,100.00
2022-09-05T21:59:18.157Z,100.00
2022-09-05T21:59:28.484Z,100.00
2022-09-05T22:00:42.375Z,100.00
2022-09-05T22:03:44.550Z,100.00
2022-09-05T22:06:48.638Z,100.00
2022-09-05T22:09:50.523Z,100.00
2022-09-05T22:12:52.385Z,100.00
2022-09-05T22:15:57.029Z,100.00
2022-09-05T22:19:00.767Z,100.00
2022-09-05T22:22:15.504Z,77.15
2022-09-05T22:25:27.345Z,64.69
2022-09-05T22:28:33.498Z,63.21
2022-09-05T22:31:36.509Z,60.48
2022-09-05T22:34:38.453Z,61.07
2022-09-05T22:37:44.338Z,62.13
2022-09-05T22:40:46.144Z,62.88
2022-09-05T22:43:50.128Z,63.56
2022-09-05T22:46:52.303Z,63.48
2022-09-05T22:49:53.980Z,66.22
2022-09-05T22:52:57.064Z,70.64
2022-09-05T22:56:02.094Z,77.15
2022-09-05T22:59:05.124Z,77.50
2022-09-05T23:02:06.959Z,80.12
2022-09-05T23:05:09.518Z,82.17
2022-09-05T23:08:13.164Z,82.10
2022-09-05T23:11:16.777Z,85.52
2022-09-05T23:14:18.582Z,87.93
2022-09-05T23:17:20.313Z,97.04
2022-09-05T23:20:22.759Z,90.73
2022-09-05T23:23:25.871Z,90.39
2022-09-05T23:26:27.655Z,93.07
2022-09-05T23:29:29.414Z,100.00
2022-09-05T23:32:31.314Z,97.85
2022-09-05T23:35:33.156Z,100.00
2022-09-05T23:38:36.584Z,100.00
2022-09-05T23:41:38.257Z,100.00
2022-09-05T23:44:39.924Z,100.00
2022-09-05T23:47:41.652Z,100.00
2022-09-05T23:50:43.342Z,100.00
2022-09-05T23:53:46.730Z,100.00
2022-09-05T23:56:48.569Z,100.00
2022-09-05T23:59:52.379Z,100.00
